Sudbury Airport
CYSB : now visible

Airfield :











YOU CAN JOIN US ON...

 
LOGIN :

Register | Disclaimer

   EN    FR    IT 

 









Legend :    VFR   Marginal VFR   IFR   Intensive IFR   Very Intensive IFR
Visi :
Ceiling :
>= 8 km
>= 3000ft
5 to 8 km
1000 to 3000 ft
1500m to 5 km
500 to 1000 ft
800 to 1500m
200 to 500 ft
< 800m
< 200 ft
Symbols :   Thunderstorms  Fog  Heavy snow  Heavy precipitations  Wind > 20 kt






- Airport Elevation : 1141 ft
- IATA code : YSB


CYSB - Sudbury

CURRENT METAR :
  • 280100Z 17010KT 10SM OVC004 M01/M02 A3001 RMK ST8 SLP182

EXPIRED METARs :
  • 280049Z 17009KT 15SM OVC004 M01/M02 A3001 RMK ST8 SLP183
  • 280009Z 15009KT 15SM OVC008 M01/M02 A3002 RMK CF8 SLP188
  • 272300Z 13007KT 15SM SCT022 BKN050 M02/M03 A3005 RMK SC4SC2 SLP196

TAF TAF CYSB
Valid from the 28 at 02:00 until the 28 at 14:00 UTC


280138Z 2802/2814 16008KT P6SM SCT004 OVC015
TEMPO 2802/2806 3SM -SHSN OVC004
BECMG 2802/2804 20008KT
FM280600 22008KT P6SM BKN025 OVC160
TEMPO 2806/2814 BKN015 OVC080
BECMG 2806/2808 22012KT RMK NXT FCST BY 280800Z
CZYZ FIR / North America



MET'MAP, your aeronautical weather chart ! - Copyright ORBIFLY December 2007 - Disclaimer

ORBIFLY MET'MAP TEAM :

Programming & Development : Alexandra Zaïnal
Concept & original design : Baudouin d'Aumeries
Assistance for programming : Marc-Olivier Méhu
Technical & hardware support : Manuel Goepfert

Contact : metmap@orbifly.com




SOURCES & CREDITS :

   NOAA       Earth
Advisory